Bookmark and Share
Track history (hours):
 

Maran Pythia

Last reported at 2014-Mar-29 15:26 UTC. Time now 2014-Apr-17 12:34 UTC.
Position N 07°08' W 013°15'.
Warning: this ship's position is 18 days out of date.

Length 274 m; draft 9.2 m.

Type: Tanker. MMSI: 240893000.

NotesDate/timePositionNaut miles runAvg speedWind from/ knotsBaromVisibWave heightAir tempDewpointWater temp
2014-Mar-29 15:26N 07°08' W 013°15'7310.0
2014-Mar-29 08:10N 07°49' W 014°16'1810.4
2014-Mar-29 06:26N 07°59' W 014°31'910.3
2014-Mar-29 05:34N 08°04' W 014°38'1010.0
2014-Mar-29 04:34N 08°10' W 014°46'1010.2
2014-Mar-29 03:34N 08°16' W 014°55'1010.3
2014-Mar-29 02:34N 08°22' W 015°03'1010.4
2014-Mar-29 01:34N 08°27' W 015°12'1110.5
2014-Mar-29 00:34N 08°34' W 015°21'1110.6
2014-Mar-28 23:33N 08°39' W 015°30'1010.2
2014-Mar-28 22:34N 08°45' W 015°38'10 9.8
2014-Mar-28 21:33N 08°51' W 015°46'1010.1
2014-Mar-28 20:34N 08°56' W 015°55'1010.0
2014-Mar-28 19:34N 09°03' W 016°03'1010.2
2014-Mar-28 18:34N 09°11' W 016°09'1010.3
2014-Mar-28 17:34N 09°19' W 016°15'1010.1
2014-Mar-28 16:34N 09°26' W 016°23'10 9.8
2014-Mar-28 15:34N 09°35' W 016°28'1010.1
2014-Mar-28 14:34N 09°43' W 016°34'10 9.8
2014-Mar-28 13:33N 09°50' W 016°40'1010.2
2014-Mar-28 12:33N 09°58' W 016°47'4410.4
2014-Mar-28 08:18N 10°33' W 017°15'810.1
2014-Mar-28 07:29N 10°39' W 017°20'48 9.7
2014-Mar-28 02:31N 11°20' W 017°47'6110.2
2014-Mar-27 20:30N 12°20' W 017°58'1210.2
2014-Mar-27 19:21N 12°32' W 018°00'1210.5
2014-Mar-27 18:12N 12°43' W 018°03'710.6
2014-Mar-27 17:33N 12°50' W 018°04'1010.3
2014-Mar-27 16:34N 13°00' W 018°06'1010.3
2014-Mar-27 15:34N 13°10' W 018°08'2110.3
2014-Mar-27 13:28N 13°31' W 018°12'  

Dump ship's entire track history

sailing weather and tide predictions

Maran Pythia — SVAQ5 — position and weather